createdAt,value
2023-05-21T00:02:24.441Z,14.44
2023-05-21T00:04:52.032Z,14.46
2023-05-21T00:07:20.539Z,14.52
2023-05-21T00:09:48.284Z,14.54
2023-05-21T00:12:15.857Z,14.56
2023-05-21T00:14:43.518Z,14.55
2023-05-21T00:17:11.584Z,14.55
2023-05-21T00:19:39.993Z,14.54
2023-05-21T00:22:07.586Z,14.47
2023-05-21T00:24:35.196Z,14.45
2023-05-21T00:27:02.967Z,14.46
2023-05-21T00:29:30.545Z,14.44
2023-05-21T00:31:58.195Z,14.40
2023-05-21T00:34:26.592Z,14.33
2023-05-21T00:36:55.961Z,14.31
2023-05-21T00:39:24.262Z,14.34
2023-05-21T00:41:51.960Z,14.36
2023-05-21T00:44:20.611Z,14.38
2023-05-21T00:46:49.017Z,14.38
2023-05-21T00:49:17.107Z,14.39
2023-05-21T00:51:45.377Z,14.36
2023-05-21T00:54:13.117Z,14.31
2023-05-21T00:56:41.626Z,14.23
2023-05-21T00:59:09.298Z,14.23
2023-05-21T01:01:37.494Z,14.22
2023-05-21T01:04:05.431Z,14.23
2023-05-21T01:06:35.780Z,14.26
2023-05-21T01:09:06.494Z,14.29
2023-05-21T01:11:51.110Z,14.31
2023-05-21T01:14:20.818Z,14.33
2023-05-21T01:16:50.398Z,14.33
2023-05-21T01:19:23.124Z,14.35
2023-05-21T01:22:00.509Z,14.36
2023-05-21T01:24:28.225Z,14.33
2023-05-21T01:26:56.161Z,14.30
2023-05-21T01:29:23.814Z,14.30
2023-05-21T01:32:10.056Z,14.30
2023-05-21T01:35:13.005Z,14.27
2023-05-21T01:37:53.258Z,14.24
2023-05-21T01:40:36.202Z,14.25
2023-05-21T01:43:06.515Z,14.29
2023-05-21T01:45:39.552Z,14.29
2023-05-21T01:48:09.440Z,14.29
2023-05-21T01:50:39.393Z,14.33
2023-05-21T01:53:07.219Z,14.34
2023-05-21T01:55:39.567Z,14.34
2023-05-21T01:58:08.289Z,14.33
2023-05-21T02:00:37.531Z,14.34
2023-05-21T02:03:05.459Z,14.34
2023-05-21T02:05:33.077Z,14.35
2023-05-21T02:08:01.272Z,14.33
2023-05-21T02:10:29.315Z,14.32
2023-05-21T02:12:57.020Z,14.31
2023-05-21T02:15:24.990Z,14.26
2023-05-21T02:17:53.203Z,14.23
2023-05-21T02:20:22.407Z,14.21
2023-05-21T02:22:50.363Z,14.16
2023-05-21T02:25:20.263Z,14.15
2023-05-21T02:27:52.910Z,14.13
2023-05-21T02:30:21.277Z,14.12
2023-05-21T02:32:50.026Z,14.14
2023-05-21T02:35:17.728Z,14.14
2023-05-21T02:37:45.458Z,14.16
2023-05-21T02:40:13.249Z,14.18
2023-05-21T02:42:41.601Z,14.16
2023-05-21T02:45:13.380Z,14.15
2023-05-21T02:47:43.494Z,14.13
2023-05-21T02:50:11.320Z,14.15
2023-05-21T02:52:47.314Z,14.17
2023-05-21T02:55:15.124Z,14.14
2023-05-21T02:57:42.660Z,14.14
2023-05-21T03:00:11.595Z,14.15
2023-05-21T03:02:40.836Z,14.12
2023-05-21T03:05:09.602Z,14.07
2023-05-21T03:07:37.294Z,14.03
2023-05-21T03:10:05.969Z,14.02
2023-05-21T03:12:33.540Z,14.00
2023-05-21T03:15:01.494Z,14.00
2023-05-21T03:17:30.525Z,13.99
2023-05-21T03:19:58.127Z,14.01
2023-05-21T03:22:25.828Z,14.03
2023-05-21T03:24:53.706Z,14.05
2023-05-21T03:27:21.485Z,14.06
2023-05-21T03:29:49.437Z,14.03
2023-05-21T03:32:17.663Z,14.03
2023-05-21T03:34:47.416Z,14.06
2023-05-21T03:37:16.600Z,14.06
2023-05-21T03:39:44.206Z,14.09
2023-05-21T03:42:14.233Z,14.09
2023-05-21T03:44:47.106Z,14.13
2023-05-21T03:47:27.261Z,14.14
2023-05-21T03:49:55.334Z,14.16
2023-05-21T03:52:22.951Z,14.19
2023-05-21T03:54:50.834Z,14.19
2023-05-21T03:57:18.497Z,14.19
2023-05-21T03:59:47.504Z,14.19
2023-05-21T04:02:16.100Z,14.19
2023-05-21T04:04:44.583Z,14.18
2023-05-21T04:07:15.339Z,14.20
2023-05-21T04:09:43.195Z,14.20
2023-05-21T04:12:11.151Z,14.20
2023-05-21T04:18:46.961Z,14.20
2023-05-21T04:21:16.422Z,14.20
2023-05-21T04:23:44.492Z,14.19
2023-05-21T04:26:22.900Z,14.20
2023-05-21T04:28:50.595Z,14.20
2023-05-21T04:31:18.275Z,14.18
2023-05-21T04:33:48.193Z,14.17
2023-05-21T04:36:17.266Z,14.14
2023-05-21T04:38:45.929Z,14.11
2023-05-21T04:41:14.378Z,14.12
2023-05-21T04:43:44.174Z,14.16
2023-05-21T04:46:14.094Z,14.18
2023-05-21T04:48:42.408Z,14.19
2023-05-21T04:51:10.192Z,14.20
2023-05-21T04:53:38.947Z,14.24
2023-05-21T04:56:07.381Z,14.26
2023-05-21T04:58:34.970Z,14.21
2023-05-21T05:01:04.232Z,14.16
2023-05-21T05:03:32.057Z,14.13
2023-05-21T05:06:00.509Z,14.14
2023-05-21T05:08:28.212Z,14.16
2023-05-21T05:10:56.050Z,14.14
2023-05-21T05:13:23.676Z,14.17
2023-05-21T05:15:54.404Z,14.21
2023-05-21T05:18:22.403Z,14.22
2023-05-21T05:20:50.073Z,14.21
2023-05-21T05:23:17.800Z,14.20
2023-05-21T05:25:45.722Z,14.21
2023-05-21T05:28:13.394Z,14.23
2023-05-21T05:30:41.042Z,14.22
2023-05-21T05:33:21.116Z,14.26
2023-05-21T05:35:49.561Z,14.26
2023-05-21T05:38:17.579Z,14.29
2023-05-21T05:40:45.450Z,14.35
2023-05-21T05:43:13.075Z,14.38
2023-05-21T05:45:40.754Z,14.45
2023-05-21T05:48:13.396Z,14.47
2023-05-21T05:50:41.134Z,14.53
2023-05-21T05:53:08.844Z,14.59
2023-05-21T05:55:36.848Z,14.61
2023-05-21T05:58:04.715Z,14.62
2023-05-21T06:00:34.335Z,14.62
2023-05-21T06:03:04.216Z,14.58
2023-05-21T06:05:32.037Z,14.54
2023-05-21T06:07:59.643Z,14.47
2023-05-21T06:10:27.351Z,14.44
2023-05-21T06:12:54.960Z,14.43
2023-05-21T06:15:22.766Z,14.49
2023-05-21T06:17:50.502Z,14.54
2023-05-21T06:20:18.360Z,14.58
2023-05-21T06:22:46.050Z,14.59
2023-05-21T06:25:14.671Z,14.63
2023-05-21T06:27:42.304Z,14.64
2023-05-21T06:30:17.016Z,14.59
2023-05-21T06:32:45.559Z,14.61
2023-05-21T06:35:13.637Z,14.61
2023-05-21T06:37:41.438Z,14.62
2023-05-21T06:40:09.716Z,14.63
2023-05-21T06:42:37.946Z,14.66
2023-05-21T06:45:37.915Z,14.71
2023-05-21T06:48:18.470Z,14.73
2023-05-21T06:50:47.831Z,14.77
2023-05-21T06:53:16.591Z,14.79
2023-05-21T06:55:46.171Z,14.79
2023-05-21T06:58:17.104Z,14.78
2023-05-21T07:00:45.023Z,14.80
2023-05-21T07:03:12.910Z,14.81
2023-05-21T07:05:40.768Z,14.79
2023-05-21T07:08:09.120Z,14.73
2023-05-21T07:10:38.318Z,14.71
2023-05-21T07:13:06.187Z,14.75
2023-05-21T07:15:34.182Z,14.80
2023-05-21T07:18:06.965Z,14.84
2023-05-21T07:20:35.595Z,14.86
2023-05-21T07:23:06.788Z,14.91
2023-05-21T07:25:34.779Z,14.94
2023-05-21T07:28:03.606Z,14.97
2023-05-21T07:30:32.272Z,15.01
2023-05-21T07:32:59.976Z,15.05
2023-05-21T07:35:27.699Z,15.07
2023-05-21T07:37:55.915Z,15.07
2023-05-21T07:40:23.587Z,15.08
2023-05-21T07:42:52.339Z,15.08
2023-05-21T07:45:22.986Z,15.10
2023-05-21T07:47:50.944Z,15.13
2023-05-21T07:50:18.722Z,15.17
2023-05-21T07:52:48.297Z,15.20
2023-05-21T07:55:16.506Z,15.23
2023-05-21T07:57:45.519Z,15.24
2023-05-21T08:00:16.104Z,15.26
2023-05-21T08:02:47.867Z,15.28
2023-05-21T08:05:16.666Z,15.34
2023-05-21T08:07:46.424Z,15.38
2023-05-21T08:10:15.369Z,15.37
2023-05-21T08:12:44.046Z,15.40
2023-05-21T08:15:11.763Z,15.41
2023-05-21T08:17:44.483Z,15.41
2023-05-21T08:20:13.584Z,15.40
2023-05-21T08:22:43.334Z,15.39
2023-05-21T08:25:11.322Z,15.39
2023-05-21T08:27:39.131Z,15.44
2023-05-21T08:30:07.600Z,15.47
2023-05-21T08:32:35.943Z,15.55
2023-05-21T08:35:03.904Z,15.61
2023-05-21T08:37:44.071Z,15.65
2023-05-21T08:40:46.398Z,15.76
2023-05-21T08:43:16.593Z,15.83
2023-05-21T08:45:56.656Z,15.89
2023-05-21T08:48:28.063Z,15.94
2023-05-21T08:50:55.830Z,15.99
2023-05-21T08:53:33.075Z,16.01
2023-05-21T08:56:01.797Z,16.05
2023-05-21T08:58:46.926Z,16.15
2023-05-21T09:01:19.688Z,16.18
2023-05-21T09:03:54.430Z,16.19
2023-05-21T09:06:26.458Z,16.24
2023-05-21T09:09:06.729Z,16.27
2023-05-21T09:11:42.472Z,16.25
2023-05-21T09:14:11.689Z,16.27
2023-05-21T09:17:02.310Z,16.28
2023-05-21T09:19:32.409Z,16.34
2023-05-21T09:22:04.662Z,16.40
2023-05-21T09:24:36.227Z,16.42
2023-05-21T09:27:07.830Z,16.44
2023-05-21T09:29:36.270Z,16.46
2023-05-21T09:32:08.046Z,16.52
2023-05-21T09:34:38.934Z,16.51
2023-05-21T09:37:16.516Z,16.51
2023-05-21T09:39:54.475Z,16.52
2023-05-21T09:42:22.385Z,16.50
2023-05-21T09:44:50.942Z,16.53
2023-05-21T09:47:21.324Z,16.56
2023-05-21T09:49:49.429Z,16.62
2023-05-21T09:52:27.668Z,16.66
2023-05-21T09:54:55.386Z,16.72
2023-05-21T09:57:29.599Z,16.84
2023-05-21T09:59:57.219Z,17.04
2023-05-21T10:02:26.958Z,17.19
2023-05-21T10:04:57.237Z,17.36
2023-05-21T10:07:27.450Z,17.48
2023-05-21T10:09:57.381Z,17.53
2023-05-21T10:12:25.827Z,17.55
2023-05-21T10:15:16.182Z,17.53
2023-05-21T10:17:46.829Z,17.54
2023-05-21T10:20:14.641Z,17.59
2023-05-21T10:22:42.613Z,17.65
2023-05-21T10:25:10.814Z,17.64
2023-05-21T10:27:38.660Z,17.75
2023-05-21T10:30:07.196Z,17.92
2023-05-21T10:32:35.330Z,18.08
2023-05-21T10:35:03.267Z,18.16
2023-05-21T10:37:31.656Z,18.30
2023-05-21T10:39:59.287Z,18.38
2023-05-21T10:42:32.672Z,18.49
2023-05-21T10:45:28.124Z,18.54
2023-05-21T10:48:24.013Z,18.47
2023-05-21T10:51:14.185Z,18.36
2023-05-21T10:53:54.458Z,18.28
2023-05-21T10:56:28.776Z,18.15
2023-05-21T10:59:22.323Z,18.07
2023-05-21T11:01:53.269Z,18.06
2023-05-21T11:04:27.700Z,18.07
2023-05-21T11:06:58.758Z,18.11
2023-05-21T11:09:27.352Z,18.22
2023-05-21T11:11:59.308Z,18.32
2023-05-21T11:14:38.365Z,18.38
2023-05-21T11:17:40.775Z,18.41
2023-05-21T11:20:14.396Z,18.47
2023-05-21T11:22:42.129Z,18.44
2023-05-21T11:25:10.230Z,18.37
2023-05-21T11:27:41.936Z,18.38
2023-05-21T11:30:14.850Z,18.38
2023-05-21T11:33:07.592Z,18.43
2023-05-21T11:35:51.683Z,18.50
2023-05-21T11:38:19.381Z,18.62
2023-05-21T11:41:03.912Z,18.73
2023-05-21T11:43:31.720Z,18.80
2023-05-21T11:45:59.533Z,18.87
2023-05-21T11:48:29.425Z,18.91
2023-05-21T11:50:58.454Z,18.99
2023-05-21T11:53:26.103Z,19.02
2023-05-21T11:55:57.693Z,19.05
2023-05-21T11:58:25.870Z,19.03
2023-05-21T12:00:53.462Z,19.04
2023-05-21T12:03:27.012Z,19.03
2023-05-21T12:05:55.025Z,19.02
2023-05-21T12:08:27.191Z,18.95
2023-05-21T12:11:01.953Z,18.87
2023-05-21T12:13:30.008Z,18.83
2023-05-21T12:15:57.685Z,18.84
2023-05-21T12:18:26.668Z,18.83
2023-05-21T12:20:54.395Z,18.85
2023-05-21T12:23:26.170Z,18.86
2023-05-21T12:25:54.489Z,18.85
2023-05-21T12:28:23.082Z,18.90
2023-05-21T12:30:51.219Z,19.07
2023-05-21T12:33:19.108Z,19.32
2023-05-21T12:35:50.534Z,19.62
2023-05-21T12:38:18.461Z,19.82
2023-05-21T12:40:46.148Z,20.00
2023-05-21T12:43:13.885Z,20.11
2023-05-21T12:45:41.612Z,20.23
2023-05-21T12:48:09.512Z,20.37
2023-05-21T12:50:40.704Z,20.49
2023-05-21T12:53:10.987Z,20.65
2023-05-21T12:55:38.924Z,20.73
2023-05-21T12:58:09.160Z,20.77
2023-05-21T13:00:37.478Z,20.81
2023-05-21T13:03:06.728Z,20.92
2023-05-21T13:05:35.763Z,21.06
2023-05-21T13:08:03.690Z,21.10
2023-05-21T13:10:31.347Z,21.21
2023-05-21T13:12:59.095Z,21.29
2023-05-21T13:15:26.839Z,21.25
2023-05-21T13:17:56.782Z,21.28
2023-05-21T13:20:27.614Z,21.26
2023-05-21T13:22:55.540Z,21.24
2023-05-21T13:25:27.524Z,21.27
2023-05-21T13:27:55.569Z,21.27
2023-05-21T13:30:23.268Z,21.28
2023-05-21T13:32:52.426Z,21.30
2023-05-21T13:35:20.489Z,21.29
2023-05-21T13:37:48.045Z,21.28
2023-05-21T13:40:17.014Z,21.27
2023-05-21T13:42:46.221Z,21.28
2023-05-21T13:45:15.920Z,21.18
2023-05-21T13:47:45.508Z,21.10
2023-05-21T13:50:13.870Z,21.06
2023-05-21T13:52:41.706Z,21.02
2023-05-21T13:55:10.839Z,20.95
2023-05-21T13:57:40.730Z,20.82
2023-05-21T14:00:11.131Z,20.68
2023-05-21T14:02:38.905Z,20.50
2023-05-21T14:05:06.947Z,20.39
2023-05-21T14:07:34.819Z,20.29
2023-05-21T14:10:02.980Z,20.17
2023-05-21T14:12:31.372Z,19.95
2023-05-21T14:14:59.061Z,19.89
2023-05-21T14:17:26.777Z,19.93
2023-05-21T14:19:55.859Z,19.93
2023-05-21T14:22:23.719Z,19.99
2023-05-21T14:24:51.456Z,20.02
2023-05-21T14:27:19.092Z,20.09
2023-05-21T14:29:46.722Z,20.14
2023-05-21T14:32:14.470Z,20.16
2023-05-21T14:34:42.067Z,20.15
2023-05-21T14:37:09.776Z,20.20
2023-05-21T14:39:37.393Z,20.25
2023-05-21T14:42:05.470Z,20.14
2023-05-21T14:44:33.125Z,20.06
2023-05-21T14:47:00.766Z,20.00
2023-05-21T14:49:28.418Z,19.88
2023-05-21T14:51:56.080Z,19.93
2023-05-21T14:54:23.794Z,19.97
2023-05-21T14:56:51.446Z,19.94
2023-05-21T14:59:19.057Z,19.82
2023-05-21T15:01:46.802Z,19.82
2023-05-21T15:04:14.560Z,19.93
2023-05-21T15:06:42.595Z,20.08
2023-05-21T15:09:10.204Z,20.28
2023-05-21T15:11:39.881Z,20.40
2023-05-21T15:14:07.441Z,20.48
2023-05-21T15:16:35.003Z,20.44
2023-05-21T15:19:03.612Z,20.52
2023-05-21T15:21:31.557Z,20.53
2023-05-21T15:23:59.167Z,20.61
2023-05-21T15:26:27.122Z,20.67
2023-05-21T15:28:54.795Z,20.70
2023-05-21T15:31:22.697Z,20.65
2023-05-21T15:33:50.337Z,20.71
2023-05-21T15:36:17.874Z,20.85
2023-05-21T15:38:45.404Z,20.90
2023-05-21T15:41:13.050Z,20.98
2023-05-21T15:43:42.199Z,21.05
2023-05-21T15:46:11.293Z,21.00
2023-05-21T15:48:38.966Z,21.00
2023-05-21T15:51:06.646Z,20.93
2023-05-21T15:53:34.329Z,20.86
2023-05-21T15:56:03.382Z,20.75
2023-05-21T15:58:31.391Z,20.61
2023-05-21T16:00:59.152Z,20.39
2023-05-21T16:03:26.926Z,20.05
2023-05-21T16:05:54.642Z,19.73
2023-05-21T16:08:22.295Z,19.50
2023-05-21T16:10:49.909Z,19.24
2023-05-21T16:13:17.659Z,18.95
2023-05-21T16:15:45.365Z,18.68
2023-05-21T16:18:13.099Z,18.55
2023-05-21T16:20:40.710Z,18.39
2023-05-21T16:23:08.860Z,18.27
2023-05-21T16:25:36.940Z,18.16
2023-05-21T16:28:05.034Z,18.05
2023-05-21T16:30:32.685Z,17.88
2023-05-21T16:33:00.877Z,17.73
2023-05-21T16:35:28.698Z,17.60
2023-05-21T16:37:56.302Z,17.51
2023-05-21T16:40:24.166Z,17.44
2023-05-21T16:42:53.398Z,17.34
2023-05-21T16:45:21.684Z,17.31
2023-05-21T16:47:51.089Z,17.27
2023-05-21T16:50:21.847Z,17.18
2023-05-21T16:52:49.592Z,17.10
2023-05-21T16:55:17.199Z,17.05
2023-05-21T16:57:44.852Z,17.01
2023-05-21T17:00:12.897Z,16.96
2023-05-21T17:02:40.807Z,16.87
2023-05-21T17:05:08.666Z,16.84
2023-05-21T17:07:36.395Z,16.86
2023-05-21T17:10:05.714Z,16.90
2023-05-21T17:12:33.362Z,16.92
2023-05-21T17:15:01.122Z,16.97
2023-05-21T17:17:28.816Z,17.04
2023-05-21T17:19:56.741Z,17.07
2023-05-21T17:22:24.398Z,17.03
2023-05-21T17:24:52.097Z,16.99
2023-05-21T17:27:20.005Z,16.90
2023-05-21T17:29:47.616Z,16.89
2023-05-21T17:32:15.182Z,16.90
2023-05-21T17:34:43.652Z,16.88
2023-05-21T17:37:11.387Z,16.87
2023-05-21T17:39:39.002Z,16.88
2023-05-21T17:42:06.732Z,16.93
2023-05-21T17:44:34.273Z,16.91
2023-05-21T17:47:01.952Z,16.85
2023-05-21T17:49:29.528Z,16.83
2023-05-21T17:51:57.115Z,16.91
2023-05-21T17:54:24.683Z,16.99
2023-05-21T17:56:52.515Z,17.00
2023-05-21T17:59:21.496Z,16.98
2023-05-21T18:01:49.374Z,16.97
2023-05-21T18:04:17.078Z,16.94
2023-05-21T18:06:44.832Z,16.96
2023-05-21T18:09:14.409Z,16.98
2023-05-21T18:11:44.188Z,17.03
2023-05-21T18:14:11.969Z,17.05
2023-05-21T18:16:39.982Z,17.11
2023-05-21T18:19:07.726Z,17.14
2023-05-21T18:21:35.539Z,17.14
2023-05-21T18:24:03.624Z,17.11
2023-05-21T18:26:31.653Z,17.09
2023-05-21T18:28:59.399Z,16.99
2023-05-21T18:31:27.211Z,16.82
2023-05-21T18:33:54.965Z,16.79
2023-05-21T18:36:22.609Z,16.73
2023-05-21T18:38:50.918Z,16.65
2023-05-21T18:41:19.933Z,16.56
2023-05-21T18:43:47.521Z,16.49
2023-05-21T18:46:15.177Z,16.45
2023-05-21T18:48:43.066Z,16.43
2023-05-21T18:51:10.742Z,16.46
2023-05-21T18:53:39.308Z,16.50
2023-05-21T18:56:10.414Z,16.49
2023-05-21T18:58:38.713Z,16.45
2023-05-21T19:01:06.594Z,16.38
2023-05-21T19:03:34.243Z,16.29
2023-05-21T19:06:01.932Z,16.26
2023-05-21T19:08:29.586Z,16.21
2023-05-21T19:10:57.283Z,16.18
2023-05-21T19:13:25.053Z,16.08
2023-05-21T19:15:53.375Z,15.98
2023-05-21T19:18:21.094Z,15.93
2023-05-21T19:20:49.078Z,15.87
2023-05-21T19:23:16.706Z,15.82
2023-05-21T19:25:44.311Z,15.71
2023-05-21T19:28:11.970Z,15.67
2023-05-21T19:30:39.836Z,15.69
2023-05-21T19:33:07.892Z,15.73
2023-05-21T19:35:36.214Z,15.76
2023-05-21T19:38:05.556Z,15.78
2023-05-21T19:40:33.774Z,15.74
2023-05-21T19:43:02.834Z,15.72
2023-05-21T19:45:30.413Z,15.68
2023-05-21T19:47:59.219Z,15.61
2023-05-21T19:50:28.867Z,15.53
2023-05-21T19:52:57.367Z,15.51
2023-05-21T19:55:25.174Z,15.53
2023-05-21T19:57:52.818Z,15.50
2023-05-21T20:00:20.752Z,15.43
2023-05-21T20:02:48.387Z,15.40
2023-05-21T20:05:16.319Z,15.32
2023-05-21T20:07:44.891Z,15.22
2023-05-21T20:10:12.552Z,15.18
2023-05-21T20:12:40.452Z,15.17
2023-05-21T20:15:08.334Z,15.17
2023-05-21T20:17:36.191Z,15.17
2023-05-21T20:20:11.254Z,15.18
2023-05-21T20:22:39.052Z,15.11
2023-05-21T20:25:08.758Z,15.08
2023-05-21T20:27:38.965Z,15.05
2023-05-21T20:30:08.080Z,15.03
2023-05-21T20:32:36.330Z,15.07
2023-05-21T20:35:04.901Z,15.10
2023-05-21T20:37:33.962Z,15.12
2023-05-21T20:40:01.686Z,15.03
2023-05-21T20:42:34.263Z,14.99
2023-05-21T20:45:03.190Z,15.00
2023-05-21T20:47:32.037Z,15.04
2023-05-21T20:50:00.249Z,15.09
2023-05-21T20:52:27.942Z,15.13
2023-05-21T20:54:55.758Z,15.09
2023-05-21T20:57:24.199Z,15.07
2023-05-21T20:59:53.478Z,15.03
2023-05-21T21:02:21.761Z,14.93
2023-05-21T21:04:50.799Z,14.89
2023-05-21T21:07:19.010Z,14.92
2023-05-21T21:09:47.423Z,14.89
2023-05-21T21:12:25.954Z,14.89
2023-05-21T21:14:54.726Z,14.86
2023-05-21T21:17:22.559Z,14.88
2023-05-21T21:19:50.249Z,14.89
2023-05-21T21:22:18.562Z,14.91
2023-05-21T21:24:46.350Z,14.90
2023-05-21T21:27:13.987Z,14.85
2023-05-21T21:29:41.687Z,14.81
2023-05-21T21:32:09.455Z,14.80
2023-05-21T21:34:37.217Z,14.78
2023-05-21T21:37:04.954Z,14.79
2023-05-21T21:39:32.777Z,14.79
2023-05-21T21:42:00.577Z,14.71
2023-05-21T21:44:34.474Z,14.71
2023-05-21T21:47:02.133Z,14.69
2023-05-21T21:49:29.681Z,14.67
2023-05-21T21:51:58.010Z,14.69
2023-05-21T21:54:25.635Z,14.70
2023-05-21T21:56:53.582Z,14.76
2023-05-21T21:59:22.464Z,14.83
2023-05-21T22:01:50.257Z,14.86
2023-05-21T22:04:17.904Z,14.85
2023-05-21T22:06:45.974Z,14.84
2023-05-21T22:09:13.676Z,14.80
2023-05-21T22:11:41.547Z,14.83
2023-05-21T22:14:09.155Z,14.79
2023-05-21T22:16:36.733Z,14.77
2023-05-21T22:19:04.524Z,14.73
2023-05-21T22:21:33.195Z,14.75
2023-05-21T22:24:00.951Z,14.68
2023-05-21T22:26:28.529Z,14.64
2023-05-21T22:28:56.284Z,14.62
2023-05-21T22:31:24.063Z,14.59
2023-05-21T22:33:52.047Z,14.55
2023-05-21T22:36:19.709Z,14.48
2023-05-21T22:38:47.277Z,14.46
2023-05-21T22:41:15.001Z,14.47
2023-05-21T22:43:42.949Z,14.46
2023-05-21T22:46:10.860Z,14.49
2023-05-21T22:48:41.894Z,14.52
2023-05-21T22:51:11.413Z,14.53
2023-05-21T22:53:39.024Z,14.51
2023-05-21T22:56:06.951Z,14.54
2023-05-21T22:58:34.590Z,14.59
2023-05-21T23:01:02.626Z,14.58
2023-05-21T23:03:30.439Z,14.58
2023-05-21T23:05:58.106Z,14.54
2023-05-21T23:08:25.914Z,14.52
2023-05-21T23:10:53.528Z,14.53
2023-05-21T23:13:21.552Z,14.51
2023-05-21T23:15:50.823Z,14.49
2023-05-21T23:18:18.476Z,14.47
2023-05-21T23:20:46.148Z,14.45
2023-05-21T23:23:13.779Z,14.45
2023-05-21T23:25:41.350Z,14.46
2023-05-21T23:28:09.023Z,14.46
2023-05-21T23:30:36.808Z,14.46
2023-05-21T23:33:04.678Z,14.44
2023-05-21T23:35:32.367Z,14.43
2023-05-21T23:38:00.047Z,14.46
2023-05-21T23:40:27.642Z,14.50
2023-05-21T23:42:55.257Z,14.54
2023-05-21T23:45:23.378Z,14.53
2023-05-21T23:47:51.188Z,14.51
2023-05-21T23:50:19.505Z,14.48
2023-05-21T23:52:47.425Z,14.44
2023-05-21T23:55:15.713Z,14.42
2023-05-21T23:57:43.399Z,14.44
